sensor_id;sensor_type;location;lat;lon;timestamp;temperature;humidity
26579;DHT22;14227;47.674;19.320;2023-05-13T08:46:47;15.30;62.00
26579;DHT22;14227;47.674;19.320;2023-05-13T08:56:58;15.30;61.00
26579;DHT22;14227;47.674;19.320;2023-05-13T09:00:07;15.50;61.20
26579;DHT22;14227;47.674;19.320;2023-05-13T09:02:35;15.70;59.40
26579;DHT22;14227;47.674;19.320;2023-05-13T09:05:04;15.90;60.30
26579;DHT22;14227;47.674;19.320;2023-05-13T09:07:34;16.20;59.70
26579;DHT22;14227;47.674;19.320;2023-05-13T09:10:01;16.60;59.90
26579;DHT22;14227;47.674;19.320;2023-05-13T09:12:47;16.90;60.10
26579;DHT22;14227;47.674;19.320;2023-05-13T09:15:33;17.30;58.10
26579;DHT22;14227;47.674;19.320;2023-05-13T09:18:03;17.50;58.40
26579;DHT22;14227;47.674;19.320;2023-05-13T09:20:30;17.70;55.40
26579;DHT22;14227;47.674;19.320;2023-05-13T09:22:59;18.10;55.00
26579;DHT22;14227;47.674;19.320;2023-05-13T09:25:26;18.50;54.20
26579;DHT22;14227;47.674;19.320;2023-05-13T09:27:54;19.00;54.10
26579;DHT22;14227;47.674;19.320;2023-05-13T09:30:25;19.20;51.00
26579;DHT22;14227;47.674;19.320;2023-05-13T09:33:16;19.60;49.30
26579;DHT22;14227;47.674;19.320;2023-05-13T09:35:51;19.60;48.50
26579;DHT22;14227;47.674;19.320;2023-05-13T09:38:19;19.50;47.90
26579;DHT22;14227;47.674;19.320;2023-05-13T09:40:54;19.20;49.40
26579;DHT22;14227;47.674;19.320;2023-05-13T09:43:21;18.90;47.60
26579;DHT22;14227;47.674;19.320;2023-05-13T09:45:47;18.60;49.80
26579;DHT22;14227;47.674;19.320;2023-05-13T09:48:16;18.40;50.70
26579;DHT22;14227;47.674;19.320;2023-05-13T09:50:47;18.00;49.40
26579;DHT22;14227;47.674;19.320;2023-05-13T09:53:17;18.00;51.70
26579;DHT22;14227;47.674;19.320;2023-05-13T09:55:49;18.10;52.50
26579;DHT22;14227;47.674;19.320;2023-05-13T09:58:15;18.30;50.70
26579;DHT22;14227;47.674;19.320;2023-05-13T10:00:42;18.10;52.50
26579;DHT22;14227;47.674;19.320;2023-05-13T10:03:09;18.30;48.70
26579;DHT22;14227;47.674;19.320;2023-05-13T10:05:35;18.40;49.50
26579;DHT22;14227;47.674;19.320;2023-05-13T10:08:01;18.30;50.60
26579;DHT22;14227;47.674;19.320;2023-05-13T10:10:32;18.40;49.50
26579;DHT22;14227;47.674;19.320;2023-05-13T10:13:05;18.50;50.20
26579;DHT22;14227;47.674;19.320;2023-05-13T10:15:33;18.50;50.30
26579;DHT22;14227;47.674;19.320;2023-05-13T10:18:00;18.30;49.20
26579;DHT22;14227;47.674;19.320;2023-05-13T10:20:26;18.30;50.40
26579;DHT22;14227;47.674;19.320;2023-05-13T10:22:54;18.30;50.70
26579;DHT22;14227;47.674;19.320;2023-05-13T10:25:21;18.30;50.00
26579;DHT22;14227;47.674;19.320;2023-05-13T10:27:47;18.30;51.30
26579;DHT22;14227;47.674;19.320;2023-05-13T10:30:14;18.50;51.50
26579;DHT22;14227;47.674;19.320;2023-05-13T10:32:42;18.70;50.00
26579;DHT22;14227;47.674;19.320;2023-05-13T10:35:36;19.00;50.40
26579;DHT22;14227;47.674;19.320;2023-05-13T10:44:53;20.20;44.50
26579;DHT22;14227;47.674;19.320;2023-05-13T10:48:22;20.20;45.30
26579;DHT22;14227;47.674;19.320;2023-05-13T10:51:17;20.50;44.60
26579;DHT22;14227;47.674;19.320;2023-05-13T11:01:18;22.30;44.20
26579;DHT22;14227;47.674;19.320;2023-05-13T11:04:29;22.00;40.80
26579;DHT22;14227;47.674;19.320;2023-05-13T11:14:16;21.00;41.00
26579;DHT22;14227;47.674;19.320;2023-05-13T11:22:57;21.70;42.40
26579;DHT22;14227;47.674;19.320;2023-05-13T11:35:38;22.60;40.30
26579;DHT22;14227;47.674;19.320;2023-05-13T11:48:24;22.30;40.70
26579;DHT22;14227;47.674;19.320;2023-05-13T11:58:24;21.50;40.50
26579;DHT22;14227;47.674;19.320;2023-05-13T12:08:47;20.40;42.90
26579;DHT22;14227;47.674;19.320;2023-05-13T12:15:37;20.20;43.00
26579;DHT22;14227;47.674;19.320;2023-05-13T12:18:06;20.00;42.50
26579;DHT22;14227;47.674;19.320;2023-05-13T12:20:40;19.80;43.00
26579;DHT22;14227;47.674;19.320;2023-05-13T12:23:09;19.70;43.80
26579;DHT22;14227;47.674;19.320;2023-05-13T12:31:04;19.40;43.60
26579;DHT22;14227;47.674;19.320;2023-05-13T12:36:27;19.40;43.60
26579;DHT22;14227;47.674;19.320;2023-05-13T12:39:07;19.60;45.10
26579;DHT22;14227;47.674;19.320;2023-05-13T12:41:38;19.90;46.00
26579;DHT22;14227;47.674;19.320;2023-05-13T12:44:15;20.30;44.40
26579;DHT22;14227;47.674;19.320;2023-05-13T12:46:54;20.70;44.60
26579;DHT22;14227;47.674;19.320;2023-05-13T12:49:25;21.00;44.00
26579;DHT22;14227;47.674;19.320;2023-05-13T12:51:51;21.10;43.90
26579;DHT22;14227;47.674;19.320;2023-05-13T12:54:17;21.40;42.30
26579;DHT22;14227;47.674;19.320;2023-05-13T12:56:43;21.80;40.30
26579;DHT22;14227;47.674;19.320;2023-05-13T12:59:09;21.90;38.10
26579;DHT22;14227;47.674;19.320;2023-05-13T13:01:35;21.90;40.30
26579;DHT22;14227;47.674;19.320;2023-05-13T13:04:01;22.00;40.10
26579;DHT22;14227;47.674;19.320;2023-05-13T13:06:28;22.10;38.10
26579;DHT22;14227;47.674;19.320;2023-05-13T13:08:54;22.30;40.00
26579;DHT22;14227;47.674;19.320;2023-05-13T13:11:23;22.40;40.50
26579;DHT22;14227;47.674;19.320;2023-05-13T13:13:51;22.60;39.60
26579;DHT22;14227;47.674;19.320;2023-05-13T13:16:21;22.30;38.00
26579;DHT22;14227;47.674;19.320;2023-05-13T13:18:56;22.10;38.20
26579;DHT22;14227;47.674;19.320;2023-05-13T13:21:29;22.20;38.00
26579;DHT22;14227;47.674;19.320;2023-05-13T13:24:28;22.30;38.40
26579;DHT22;14227;47.674;19.320;2023-05-13T13:26:58;22.20;38.20
26579;DHT22;14227;47.674;19.320;2023-05-13T13:29:31;22.00;38.00
26579;DHT22;14227;47.674;19.320;2023-05-13T13:32:40;21.90;38.20
26579;DHT22;14227;47.674;19.320;2023-05-13T13:36:25;22.00;38.60
26579;DHT22;14227;47.674;19.320;2023-05-13T13:39:51;22.10;40.00
26579;DHT22;14227;47.674;19.320;2023-05-13T13:42:45;22.10;38.30
26579;DHT22;14227;47.674;19.320;2023-05-13T13:45:16;22.20;36.30
26579;DHT22;14227;47.674;19.320;2023-05-13T13:48:26;22.30;36.40
26579;DHT22;14227;47.674;19.320;2023-05-13T13:52:01;22.30;36.50
26579;DHT22;14227;47.674;19.320;2023-05-13T13:54:47;22.50;38.10
26579;DHT22;14227;47.674;19.320;2023-05-13T13:57:15;22.90;38.00
26579;DHT22;14227;47.674;19.320;2023-05-13T14:00:36;23.00;34.50
26579;DHT22;14227;47.674;19.320;2023-05-13T14:04:18;22.90;34.80
26579;DHT22;14227;47.674;19.320;2023-05-13T14:07:29;23.20;35.10
26579;DHT22;14227;47.674;19.320;2023-05-13T14:09:56;22.70;35.40
26579;DHT22;14227;47.674;19.320;2023-05-13T14:12:40;22.70;35.40
26579;DHT22;14227;47.674;19.320;2023-05-13T14:16:13;22.80;33.70
26579;DHT22;14227;47.674;19.320;2023-05-13T14:19:17;22.80;35.10
26579;DHT22;14227;47.674;19.320;2023-05-13T14:26:12;22.20;36.60
26579;DHT22;14227;47.674;19.320;2023-05-13T14:29:37;21.90;38.00
26579;DHT22;14227;47.674;19.320;2023-05-13T14:32:59;21.50;37.60
26579;DHT22;14227;47.674;19.320;2023-05-13T14:39:30;21.30;38.60
26579;DHT22;14227;47.674;19.320;2023-05-13T14:41:57;21.10;37.50
26579;DHT22;14227;47.674;19.320;2023-05-13T14:44:56;20.90;38.00
26579;DHT22;14227;47.674;19.320;2023-05-13T14:48:16;20.90;39.40
26579;DHT22;14227;47.674;19.320;2023-05-13T14:51:38;20.60;39.10
26579;DHT22;14227;47.674;19.320;2023-05-13T14:54:24;20.40;38.90
26579;DHT22;14227;47.674;19.320;2023-05-13T14:57:16;20.40;38.90
26579;DHT22;14227;47.674;19.320;2023-05-13T15:06:32;19.90;39.50
26579;DHT22;14227;47.674;19.320;2023-05-13T15:09:01;19.90;39.00
26579;DHT22;14227;47.674;19.320;2023-05-13T15:11:28;19.70;39.10
26579;DHT22;14227;47.674;19.320;2023-05-13T15:13:58;19.40;40.50
26579;DHT22;14227;47.674;19.320;2023-05-13T15:16:26;19.30;39.70
26579;DHT22;14227;47.674;19.320;2023-05-13T15:18:56;19.20;41.00
26579;DHT22;14227;47.674;19.320;2023-05-13T15:21:22;19.30;41.40
26579;DHT22;14227;47.674;19.320;2023-05-13T15:23:48;19.40;41.80
26579;DHT22;14227;47.674;19.320;2023-05-13T15:26:14;19.30;41.60
26579;DHT22;14227;47.674;19.320;2023-05-13T15:28:40;19.00;40.80
26579;DHT22;14227;47.674;19.320;2023-05-13T15:31:05;18.80;42.30
26579;DHT22;14227;47.674;19.320;2023-05-13T15:33:31;18.60;42.80
26579;DHT22;14227;47.674;19.320;2023-05-13T15:35:59;18.60;43.60
26579;DHT22;14227;47.674;19.320;2023-05-13T15:38:25;18.70;44.90
26579;DHT22;14227;47.674;19.320;2023-05-13T15:40:51;18.60;44.70
26579;DHT22;14227;47.674;19.320;2023-05-13T15:43:17;18.30;44.40
26579;DHT22;14227;47.674;19.320;2023-05-13T15:45:43;18.30;45.00
26579;DHT22;14227;47.674;19.320;2023-05-13T15:48:08;18.40;45.30
26579;DHT22;14227;47.674;19.320;2023-05-13T15:50:34;18.40;46.50
26579;DHT22;14227;47.674;19.320;2023-05-13T15:53:00;18.30;46.70
26579;DHT22;14227;47.674;19.320;2023-05-13T15:55:25;18.20;46.90
26579;DHT22;14227;47.674;19.320;2023-05-13T15:57:51;18.10;47.30
26579;DHT22;14227;47.674;19.320;2023-05-13T16:00:17;18.10;48.00
26579;DHT22;14227;47.674;19.320;2023-05-13T16:02:43;18.10;48.40
26579;DHT22;14227;47.674;19.320;2023-05-13T16:05:10;18.00;47.90
26579;DHT22;14227;47.674;19.320;2023-05-13T16:07:40;18.00;48.50
26579;DHT22;14227;47.674;19.320;2023-05-13T16:10:07;17.80;48.50
26579;DHT22;14227;47.674;19.320;2023-05-13T16:12:33;17.80;47.90
26579;DHT22;14227;47.674;19.320;2023-05-13T16:14:58;17.80;47.70
26579;DHT22;14227;47.674;19.320;2023-05-13T16:17:24;17.80;48.60
26579;DHT22;14227;47.674;19.320;2023-05-13T16:19:50;17.80;48.10
26579;DHT22;14227;47.674;19.320;2023-05-13T16:24:59;17.60;48.10
26579;DHT22;14227;47.674;19.320;2023-05-13T16:27:27;17.60;48.90
26579;DHT22;14227;47.674;19.320;2023-05-13T16:29:53;17.60;49.30
26579;DHT22;14227;47.674;19.320;2023-05-13T16:32:20;17.50;48.90
26579;DHT22;14227;47.674;19.320;2023-05-13T16:34:45;17.50;49.70
26579;DHT22;14227;47.674;19.320;2023-05-13T16:37:11;17.40;49.50
26579;DHT22;14227;47.674;19.320;2023-05-13T16:39:37;17.40;50.20
26579;DHT22;14227;47.674;19.320;2023-05-13T16:42:03;17.30;50.40
26579;DHT22;14227;47.674;19.320;2023-05-13T16:44:30;17.30;50.50
26579;DHT22;14227;47.674;19.320;2023-05-13T16:46:57;17.20;50.80
26579;DHT22;14227;47.674;19.320;2023-05-13T16:49:22;17.20;51.30
26579;DHT22;14227;47.674;19.320;2023-05-13T16:51:48;17.10;51.30
26579;DHT22;14227;47.674;19.320;2023-05-13T16:54:14;17.10;51.70
26579;DHT22;14227;47.674;19.320;2023-05-13T16:56:40;17.00;52.10
26579;DHT22;14227;47.674;19.320;2023-05-13T16:59:09;16.80;52.00
26579;DHT22;14227;47.674;19.320;2023-05-13T17:01:35;16.80;52.00
26579;DHT22;14227;47.674;19.320;2023-05-13T17:04:01;16.80;51.50
26579;DHT22;14227;47.674;19.320;2023-05-13T17:06:27;16.80;51.90
26579;DHT22;14227;47.674;19.320;2023-05-13T17:08:53;16.80;51.30
26579;DHT22;14227;47.674;19.320;2023-05-13T17:11:18;16.70;51.20
26579;DHT22;14227;47.674;19.320;2023-05-13T17:13:44;16.70;50.90
26579;DHT22;14227;47.674;19.320;2023-05-13T17:16:10;16.60;50.80
26579;DHT22;14227;47.674;19.320;2023-05-13T17:18:36;16.60;51.00
26579;DHT22;14227;47.674;19.320;2023-05-13T17:21:02;16.50;51.40
26579;DHT22;14227;47.674;19.320;2023-05-13T17:23:34;16.50;51.10
26579;DHT22;14227;47.674;19.320;2023-05-13T17:26:00;16.40;51.10
26579;DHT22;14227;47.674;19.320;2023-05-13T17:28:26;16.30;51.50
26579;DHT22;14227;47.674;19.320;2023-05-13T17:30:51;16.30;51.50
26579;DHT22;14227;47.674;19.320;2023-05-13T17:33:17;16.20;51.40
26579;DHT22;14227;47.674;19.320;2023-05-13T17:36:01;16.10;51.30
26579;DHT22;14227;47.674;19.320;2023-05-13T17:38:30;16.10;51.30
26579;DHT22;14227;47.674;19.320;2023-05-13T17:44:18;16.00;52.00
26579;DHT22;14227;47.674;19.320;2023-05-13T17:46:44;15.80;51.70
26579;DHT22;14227;47.674;19.320;2023-05-13T17:49:10;15.80;52.60
26579;DHT22;14227;47.674;19.320;2023-05-13T17:51:36;15.70;52.80
26579;DHT22;14227;47.674;19.320;2023-05-13T17:54:01;15.60;52.90
26579;DHT22;14227;47.674;19.320;2023-05-13T17:56:27;15.60;53.50
26579;DHT22;14227;47.674;19.320;2023-05-13T17:58:53;15.40;53.80
26579;DHT22;14227;47.674;19.320;2023-05-13T18:01:18;15.30;53.90
26579;DHT22;14227;47.674;19.320;2023-05-13T18:03:46;15.20;54.40
26579;DHT22;14227;47.674;19.320;2023-05-13T18:06:11;15.10;54.30
26579;DHT22;14227;47.674;19.320;2023-05-13T18:08:37;15.00;55.00
26579;DHT22;14227;47.674;19.320;2023-05-13T18:11:03;14.80;55.70
26579;DHT22;14227;47.674;19.320;2023-05-13T18:13:28;14.70;56.30
26579;DHT22;14227;47.674;19.320;2023-05-13T18:15:54;14.60;56.60
26579;DHT22;14227;47.674;19.320;2023-05-13T18:18:20;14.50;57.10
26579;DHT22;14227;47.674;19.320;2023-05-13T18:20:45;14.40;57.40
26579;DHT22;14227;47.674;19.320;2023-05-13T18:23:11;14.30;57.80
26579;DHT22;14227;47.674;19.320;2023-05-13T18:29:01;14.10;58.30
26579;DHT22;14227;47.674;19.320;2023-05-13T18:31:26;13.90;58.90
26579;DHT22;14227;47.674;19.320;2023-05-13T18:33:52;13.80;59.60
26579;DHT22;14227;47.674;19.320;2023-05-13T18:36:19;13.70;59.50
